createdAt,value
2019-05-23T00:06:16.267Z,58.60
2019-05-23T00:16:23.201Z,59.10
2019-05-23T00:26:29.902Z,59.30
2019-05-23T00:36:35.623Z,59.50
2019-05-23T00:46:41.458Z,59.50
2019-05-23T00:56:47.247Z,59.80
2019-05-23T01:06:53.860Z,59.90
2019-05-23T01:17:00.948Z,59.90
2019-05-23T01:27:08.054Z,60.00
2019-05-23T01:37:15.190Z,60.10
2019-05-23T01:47:21.066Z,60.30
2019-05-23T01:57:26.405Z,60.30
2019-05-23T02:07:32.207Z,60.50
2019-05-23T02:17:40.197Z,60.50
2019-05-23T02:27:47.529Z,60.70
2019-05-23T02:38:14.654Z,61.40
2019-05-23T02:48:25.049Z,60.80
2019-05-23T02:58:52.125Z,60.70
2019-05-23T03:08:59.570Z,60.90
2019-05-23T03:19:09.554Z,60.90
2019-05-23T03:29:16.783Z,60.90
2019-05-23T03:39:24.654Z,60.90
2019-05-23T03:49:31.003Z,61.00
2019-05-23T03:59:38.270Z,60.90
2019-05-23T04:09:44.484Z,61.00
2019-05-23T04:19:50.578Z,60.70
2019-05-23T04:29:55.896Z,60.50
2019-05-23T04:40:01.361Z,60.70
2019-05-23T04:50:09.971Z,60.50
2019-05-23T05:00:16.711Z,60.70
2019-05-23T05:10:25.848Z,60.70
2019-05-23T05:20:31.711Z,60.50
2019-05-23T05:30:36.991Z,60.30
2019-05-23T05:40:42.527Z,60.30
2019-05-23T05:50:47.967Z,60.20
2019-05-23T06:01:03.757Z,60.00
2019-05-23T06:11:10.072Z,59.90
2019-05-23T06:21:18.998Z,59.70
2019-05-23T06:31:24.669Z,59.50
2019-05-23T06:41:29.975Z,59.20
2019-05-23T06:51:35.632Z,59.00
2019-05-23T07:01:41.491Z,58.90
2019-05-23T07:11:47.044Z,58.70
2019-05-23T07:21:52.883Z,58.40
2019-05-23T07:31:58.600Z,58.10
2019-05-23T07:42:05.883Z,57.70
2019-05-23T07:52:11.320Z,57.50
2019-05-23T08:02:26.987Z,57.30
2019-05-23T08:12:32.306Z,56.90
2019-05-23T08:22:37.781Z,56.50
2019-05-23T08:32:44.359Z,56.20
2019-05-23T08:42:50.211Z,55.80
2019-05-23T08:52:55.504Z,55.50
2019-05-23T09:03:00.890Z,55.40
2019-05-23T09:13:07.092Z,55.10
2019-05-23T09:23:12.759Z,54.70
2019-05-23T09:33:18.129Z,54.30
2019-05-23T09:43:23.522Z,54.00
2019-05-23T09:53:29.193Z,53.50
2019-05-23T10:03:34.993Z,52.90
2019-05-23T10:13:40.271Z,52.40
2019-05-23T10:23:45.898Z,51.70
2019-05-23T10:33:51.534Z,50.80
2019-05-23T10:43:56.876Z,50.00
2019-05-23T10:54:02.436Z,49.30
2019-05-23T11:04:08.368Z,48.60
2019-05-23T11:14:15.234Z,47.70
2019-05-23T11:24:21.080Z,45.90
2019-05-23T11:34:26.839Z,45.60
2019-05-23T11:44:32.423Z,44.80
2019-05-23T11:54:38.279Z,43.50
2019-05-23T12:04:44.614Z,43.10
2019-05-23T12:14:49.960Z,42.30
2019-05-23T12:24:55.651Z,41.90
2019-05-23T12:35:10.648Z,41.50
2019-05-23T12:45:09.719Z,41.00
2019-05-23T12:55:15.499Z,40.60
2019-05-23T13:05:22.495Z,40.00
2019-05-23T13:15:28.382Z,40.20
2019-05-23T13:25:33.790Z,40.20
2019-05-23T13:35:39.616Z,40.50
2019-05-23T13:45:45.437Z,40.30
2019-05-23T13:55:51.525Z,40.70
2019-05-23T14:05:58.263Z,40.30
2019-05-23T14:16:05.873Z,41.10
2019-05-23T14:26:13.535Z,40.70
2019-05-23T14:36:24.775Z,41.00
2019-05-23T14:46:34.111Z,41.00
2019-05-23T14:56:39.937Z,41.40
2019-05-23T15:06:46.225Z,40.60
2019-05-23T15:16:51.575Z,41.20
2019-05-23T15:26:56.959Z,41.20
2019-05-23T15:37:02.748Z,40.70
2019-05-23T15:47:08.600Z,41.10
2019-05-23T15:57:19.573Z,40.20
2019-05-23T16:07:26.833Z,40.60
2019-05-23T16:17:32.442Z,41.40
2019-05-23T16:27:38.291Z,41.00
2019-05-23T16:37:43.585Z,41.20
2019-05-23T16:47:48.904Z,40.60
2019-05-23T16:57:58.524Z,40.90
2019-05-23T17:08:18.673Z,40.50
2019-05-23T17:18:36.085Z,41.20
2019-05-23T17:28:45.027Z,41.40
2019-05-23T17:38:50.664Z,41.40
2019-05-23T17:48:56.018Z,41.50
2019-05-23T17:59:01.572Z,41.80
2019-05-23T18:09:09.063Z,42.10
2019-05-23T18:19:14.824Z,42.30
2019-05-23T18:29:20.399Z,42.80
2019-05-23T18:39:25.719Z,43.20
2019-05-23T18:49:32.348Z,43.40
2019-05-23T18:59:37.987Z,43.70
2019-05-23T19:09:43.905Z,44.10
2019-05-23T19:19:49.163Z,44.50
2019-05-23T19:29:54.878Z,44.90
2019-05-23T19:40:00.127Z,45.30
2019-05-23T19:50:05.547Z,45.70
2019-05-23T20:00:14.991Z,46.10
2019-05-23T20:10:21.300Z,46.70
2019-05-23T20:20:26.737Z,46.90
2019-05-23T20:30:57.287Z,47.70
2019-05-23T20:41:02.910Z,48.10
2019-05-23T20:51:08.397Z,48.80
2019-05-23T21:01:22.067Z,49.10
2019-05-23T21:11:27.837Z,49.10
2019-05-23T21:21:33.091Z,49.50
2019-05-23T21:31:38.490Z,49.60
2019-05-23T21:41:43.823Z,49.90
2019-05-23T21:51:51.731Z,50.30
2019-05-23T22:02:13.484Z,50.80
2019-05-23T22:12:19.393Z,51.00
2019-05-23T22:22:24.915Z,51.10
2019-05-23T22:32:31.807Z,51.50
2019-05-23T22:42:38.688Z,52.00
2019-05-23T22:52:44.515Z,52.40
2019-05-23T23:02:49.867Z,52.40
2019-05-23T23:12:55.310Z,52.50
2019-05-23T23:23:00.560Z,52.90
2019-05-23T23:33:06.279Z,52.90
2019-05-23T23:43:11.904Z,53.00
2019-05-23T23:53:35.315Z,53.30
